Station: Groote Eylandt Airport

  Atmospheric Gas Attenuation - ITU Rec 676-11   --------------- db/100km ---------------
Date Time Temp RH % AH g/m3 Dew Point Wind Direction Speed kph Gust kph Barometer mB Rainfall Since 9am 24GHz 47GHz 76GHz 122GHz 134GHz 241GHz
07 07:30 23.4 97 20.4 22.9 7 11 1011.8 0 44.1 43.5 85.7 226.7 252.0 875.0
07 07:20 23.3 97 20.28 22.8 7 9 1011.8 0 43.9 43.3 85.2 225.4 250.3 869.3
07 07:10 23.4 97 20.4 22.9 9 13 1011.7 0 44.1 43.5 85.7 226.7 251.9 874.9
07 07:00 23.4 97 20.4 22.9 9 15 1011.5 0 44.1 43.5 85.6 226.6 251.9 874.8
07 06:50 23.4 96 20.19 22.7 11 11 1011.6 0 43.7 43.1 84.6 223.9 248.5 863.0
07 06:40 23.5 96 20.3 22.8 9 11 1011.4 0 43.9 43.3 85.0 225.0 249.9 867.9
07 06:30 23.5 95 20.09 22.7 7 13 1011.2 0 43.5 42.8 84.0 222.2 246.5 855.9
07 06:20 23.6 94 19.99 22.6 6 7 1011.1 0 43.2 42.6 83.3 220.5 244.5 849.1
07 06:10 23.7 94 20.11 22.7 11 13 1011 0 43.5 42.7 83.8 221.8 246.1 854.6
07 06:00 23.7 94 20.11 22.7 9 17 1010.8 0 43.5 42.7 83.8 221.8 246.1 854.5
07 05:50 23.7 94 20.11 22.7 7 9 1010.8 0 43.5 42.7 83.8 221.8 246.1 854.5
07 05:40 23.8 94 20.22 22.8 13 17 1010.7 0 43.7 42.9 84.2 222.9 247.5 859.5
07 05:30 23.8 94 20.22 22.8 13 20 1010.5 0 43.7 42.9 84.2 222.9 247.5 859.4
07 05:20 23.7 95 20.32 22.9 11 15 1010.6 0 43.9 43.1 84.8 224.5 249.4 866.2
07 05:10 23.6 95 20.2 22.8 9 11 1010.5 0 43.7 43.0 84.3 223.2 247.8 860.6
07 04:50 23.5 96 20.3 22.8 7 9 1010.4 0 43.9 43.2 84.9 224.8 249.8 867.3
07 04:40 23.5 95 20.09 22.7 7 7 1010.4 0 43.5 42.8 83.9 222.0 246.3 855.5
07 04:30 23.6 95 20.2 22.8 9 13 1010.3 0 43.7 42.9 84.3 223.2 247.8 860.5
07 04:20 23.6 94 19.99 22.6 9 11 1010.4 0 43.2 42.5 83.3 220.4 244.4 848.7
07 04:10 23.6 94 19.99 22.6 9 11 1010.3 0 43.2 42.5 83.3 220.4 244.4 848.6
07 04:00 23.7 94 20.11 22.7 9 13 1010.1 0 43.5 42.7 83.8 221.7 245.9 854.1
07 03:50 23.7 94 20.11 22.7 7 13 1010.2 0 43.5 42.7 83.8 221.7 246.0 854.2
07 03:40 23.6 94 19.99 22.6 7 9 1010.2 0 43.2 42.5 83.3 220.4 244.4 848.6
07 03:30 23.7 95 20.32 22.9 7 13 1010.1 0 43.9 43.1 84.8 224.4 249.3 866.0
07 03:20 23.5 95 20.09 22.7 7 9 1010.3 0 43.5 42.8 83.9 222.0 246.3 855.4
07 03:10 23.6 96 20.42 22.9 4 7 1010.3 0 44.2 43.4 85.4 226.1 251.4 872.9
07 03:00 23.6 96 20.42 22.9 4 9 1010.2 0 44.2 43.4 85.4 226.1 251.3 872.8
07 02:50 23.6 96 20.42 22.9 2 7 1010.4 0 44.2 43.4 85.4 226.1 251.4 873.0
07 02:40 23.7 95 20.32 22.9 7 9 1010.4 0 43.9 43.1 84.8 224.5 249.4 866.1
07 02:30 23.8 95 20.43 23 7 11 1010.4 0 44.2 43.3 85.3 225.6 250.8 871.2
07 02:20 23.9 95 20.55 23 7 7 1010.5 0 44.4 43.5 85.7 227.0 252.5 876.9
07 02:10 24 94 20.45 23 7 9 1010.5 0 44.2 43.2 85.1 225.3 250.5 870.0
07 02:00 24.1 94 20.57 23.1 9 15 1010.5 0 44.4 43.4 85.6 226.6 252.1 875.6
07 01:50 24.1 93 20.35 22.9 9 13 1010.7 0 44.0 43.0 84.5 223.7 248.6 863.4
07 01:40 24.2 93 20.46 23 9 11 1010.7 0 44.2 43.2 85.0 224.9 250.0 868.4
07 01:30 24.3 93 20.58 23.1 11 17 1010.7 0 44.4 43.4 85.5 226.2 251.6 874.0
07 01:20 24.4 93 20.7 23.2 11 15 1010.9 0 44.7 43.6 85.9 227.5 253.3 879.7
07 01:10 24.3 93 20.58 23.1 11 13 1010.9 0 44.4 43.4 85.5 226.2 251.7 874.1
07 01:00 24.3 94 20.8 23.3 11 19 1010.9 0 44.9 43.8 86.6 229.1 255.2 886.5
07 00:50 24.2 94 20.68 23.2 9 11 1011.1 0 44.6 43.6 86.1 227.9 253.7 881.0
07 00:40 24.2 95 20.9 23.3 7 9 1011.3 0 45.1 44.1 87.2 230.8 257.3 893.6
07 00:30 24.2 95 20.9 23.3 9 17 1011.3 0 45.1 44.1 87.2 230.8 257.3 893.6
07 00:20 24.2 95 20.9 23.3 11 13 1011.5 0 45.1 44.1 87.2 230.9 257.3 893.7
07 00:10 24.2 95 20.9 23.3 11 13 1011.4 0 45.1 44.1 87.2 230.8 257.3 893.7
07 00:00 24.2 95 20.9 23.3 11 15 1011.4 0 45.1 44.1 87.2 230.8 257.3 893.7
06 23:50 24.2 94 20.68 23.2 13 17 1011.5 0 44.6 43.6 86.1 227.9 253.7 881.3
06 23:40 24.3 94 20.8 23.3 11 13 1011.5 0 44.9 43.8 86.6 229.2 255.3 886.9
06 23:30 24.3 94 20.8 23.3 13 20 1011.4 0 44.9 43.8 86.6 229.2 255.3 886.8
06 23:20 24.3 94 20.8 23.3 13 15 1011.7 0 44.9 43.8 86.6 229.3 255.4 887.0
06 23:10 24.4 93 20.7 23.2 11 15 1011.7 0 44.7 43.6 86.0 227.6 253.4 880.1
06 23:00 24.3 93 20.58 23.1 11 19 1011.6 0 44.4 43.4 85.5 226.3 251.8 874.5
06 22:50 24.3 93 20.58 23.1 11 15 1011.7 0 44.4 43.4 85.5 226.3 251.8 874.5
06 22:40 24.3 93 20.58 23.1 11 15 1011.8 0 44.4 43.4 85.5 226.4 251.8 874.6
06 22:30 24.4 92 20.47 23 13 20 1011.6 0 44.2 43.1 84.9 224.6 249.7 867.1
06 22:20 24.4 92 20.47 23 11 17 1011.6 0 44.2 43.1 84.9 224.6 249.7 867.1
06 22:10 24.4 92 20.47 23 13 13 1011.6 0 44.2 43.1 84.9 224.6 249.7 867.1
06 22:00 24.3 92 20.36 22.9 13 19 1011.4 0 44.0 43.0 84.4 223.4 248.2 862.0
06 21:50 24.3 92 20.36 22.9 11 13 1011.5 0 43.9 43.0 84.4 223.4 248.2 862.1
06 21:40 24.3 91 20.14 22.7 11 13 1011.4 0 43.5 42.5 83.3 220.5 244.6 849.7
06 21:30 24.4 91 20.25 22.8 13 17 1011.2 0 43.7 42.7 83.7 221.6 246.0 854.6
06 21:20 24.4 90 20.03 22.7 15 17 1011.3 0 43.2 42.2 82.7 218.8 242.5 842.4
06 21:10 24.4 89 19.81 22.5 11 13 1011.3 0 42.8 41.8 81.6 215.9 239.0 830.2
06 21:00 24.4 88 19.58 22.3 11 19 1011.1 0 42.3 41.4 80.5 212.9 235.4 817.4
06 20:50 24.5 87 19.47 22.2 11 13 1011.1 0 42.0 41.1 79.8 211.2 233.3 810.3
06 20:40 24.7 85 19.24 22 11 13 1011 0 41.5 40.5 78.5 207.7 229.1 795.6
06 20:30 24.8 84 19.12 21.9 11 17 1010.8 0 41.3 40.3 77.8 205.9 226.9 788.0
06 20:20 24.9 83 19 21.8 13 15 1010.8 0 41.0 40.0 77.1 204.1 224.7 780.5
06 20:10 25.1 81 18.75 21.6 13 15 1010.8 0 40.4 39.4 75.8 200.4 220.3 765.0
06 20:00 25.3 80 18.73 21.6 13 19 1010.5 0 40.4 39.3 75.4 199.6 219.3 761.8
06 19:50 25.4 79 18.6 21.5 11 13 1010.4 0 40.1 39.0 74.7 197.7 217.0 753.9
06 19:40 25.6 77 18.33 21.3 9 11 1010.2 0 39.5 38.4 73.3 193.8 212.4 737.6
06 19:30 26 75 18.26 21.2 13 22 1009.9 0 39.3 38.1 72.6 191.9 210.1 729.9
06 19:20 26.3 71 17.58 20.8 17 20 1009.9 0 37.8 36.7 69.2 183.0 199.3 692.2
06 19:10 26.8 68 17.31 20.4 9 9 1009.7 0 37.2 36.0 67.5 178.6 194.1 674.1
06 19:00 27.2 64 16.66 20 13 17 1009.3 0 35.8 34.7 64.4 170.1 183.8 638.3
06 18:50 27.6 62 16.49 19.7 9 11 1009.2 0 35.4 34.2 63.3 167.3 180.4 626.7
06 18:40 27.8 59 15.87 19.1 11 11 1009 0 34.1 33.1 60.5 159.9 171.4 595.3
06 18:30 28.3 57 15.76 19 9 13 1008.8 0 33.8 32.7 59.7 157.7 168.8 586.2
06 18:20 28.7 54 15.26 18.5 9 11 1008.8 0 32.8 31.7 57.3 151.5 161.2 560.0
06 18:10 29.3 48 14.02 17.2 9 9 1008.8 0 30.1 29.5 52.0 137.3 144.0 499.9
06 18:00 29.7 45 13.43 16.8 9 13 1008.7 0 28.9 28.5 49.5 130.6 135.9 471.6
06 17:50 30.1 45 13.72 16.9 9 11 1008.7 0 29.4 28.8 50.3 132.9 138.8 481.8
06 17:40 30.3 44 13.56 17 7 9 1008.6 0 29.1 28.5 49.6 130.9 136.5 473.6
06 17:30 30.3 44 13.56 17 7 11 1008.5 0 29.1 28.5 49.6 130.9 136.4 473.6
06 17:20 30.6 45 14.1 17.3 7 9 1008.6 0 30.2 29.2 51.5 135.9 142.6 495.2
06 17:10 31 43 13.76 17.3 11 11 1008.6 0 29.5 28.6 49.9 131.8 137.7 478.1
06 17:00 31 43 13.76 17.3 9 15 1008.5 0 29.5 28.6 49.9 131.8 137.7 478.0
06 16:50 30.9 42 13.37 16.5 11 13 1008.6 0 28.7 28.0 48.5 128.1 133.1 462.0
06 16:40 31 43 13.76 17.3 7 7 1008.6 0 29.5 28.6 49.9 131.8 137.7 478.1
06 16:30 31.5 41 13.48 17 4 13 1008.5 0 28.8 28.0 48.6 128.2 133.4 463.2
06 16:20 31.1 42 13.52 17 2 6 1008.5 0 29.0 28.2 49.0 129.2 134.6 467.2
06 16:10 31.2 41 13.27 16.4 9 11 1008.5 0 28.4 27.8 48.0 126.6 131.4 456.0
06 16:00 30.9 42 13.37 16.5 11 17 1008.3 0 28.7 28.0 48.5 128.0 133.1 461.9
06 15:50 31.1 42 13.52 17 11 15 1008.4 0 29.0 28.2 49.0 129.2 134.6 467.2
06 15:40 31.2 42 13.59 16.8 9 15 1008.5 0 29.1 28.2 49.2 129.7 135.3 469.6
06 15:30 31.5 40 13.15 16.6 9 15 1008.4 0 28.2 27.5 47.4 124.9 129.4 449.2
06 15:20 30.9 42 13.37 16.5 9 11 1008.5 0 28.7 28.0 48.5 128.0 133.1 462.0
06 15:10 31.2 42 13.59 16.8 13 20 1008.5 0 29.1 28.2 49.2 129.7 135.3 469.6
06 15:00 31.3 42 13.66 16.9 15 26 1008.5 0 29.2 28.3 49.4 130.3 135.9 472.0
06 14:50 30.7 39 12.28 15.5 17 22 1008.7 0 26.4 26.5 44.7 117.8 120.4 417.5

Last Refresh: 07-Aug-2020 07:45:36

Most of the information presented on this site is sourced from the Bureau of Meteorology.  Copyright in all material sourced from the Bureau of Meteorology resides with the Commonwealth of Australia.